Time;durP1;ratioP1;P1;durP2;ratioP2;P2;SDS_P1;SDS_P2;PMS_P1;PMS_P2;Temp;Humidity;BMP_temperature;BMP_pressure;BME280_temperature;BME280_humidity;BME280_pressure;Samples;Min_cycle;Max_cycle;Signal;HPM_P1;HPM_P2
2023/11/04 00:00:34;;;;;;;0.90;0.90;;;8.90;63.50;;;;;;5119226;28;20028;-75
2023/11/04 00:03:00;;;;;;;1.05;0.77;;;8.90;59.70;;;;;;5120895;28;20020;-76
2023/11/04 00:05:26;;;;;;;1.25;0.70;;;8.90;55.00;;;;;;5123292;28;20141;-75
2023/11/04 00:07:51;;;;;;;0.30;0.30;;;8.90;52.70;;;;;;5123289;28;20496;-75
2023/11/04 00:10:17;;;;;;;0.52;0.52;;;9.00;50.10;;;;;;5121187;28;20398;-76
2023/11/04 00:12:43;;;;;;;1.95;0.80;;;8.90;45.40;;;;;;5121797;28;20340;-76
2023/11/04 00:15:09;;;;;;;0.75;0.75;;;9.00;59.00;;;;;;5104306;28;20023;-76
2023/11/04 00:17:35;;;;;;;0.82;0.70;;;9.10;57.10;;;;;;5120012;28;20027;-76
2023/11/04 00:20:00;;;;;;;1.23;0.70;;;9.10;65.10;;;;;;5104427;28;20031;-76
2023/11/04 00:22:26;;;;;;;0.90;0.90;;;9.10;74.40;;;;;;5121224;28;20031;-76
2023/11/04 00:24:53;;;;;;;1.85;0.65;;;9.10;51.90;;;;;;5121444;28;20470;-76
2023/11/04 00:27:22;;;;;;;0.80;0.80;;;9.10;49.40;;;;;;5125907;27;20015;-76
2023/11/04 00:29:48;;;;;;;0.70;0.70;;;9.10;92.90;;;;;;5089060;28;20398;-76
2023/11/04 00:32:14;;;;;;;3.47;0.70;;;9.10;66.00;;;;;;5120559;27;20026;-76
2023/11/04 00:34:42;;;;;;;1.63;0.60;;;9.00;57.90;;;;;;5124594;27;20459;-76
2023/11/04 00:37:09;;;;;;;0.68;0.60;;;9.00;81.40;;;;;;5126496;27;20311;-76
2023/11/04 00:39:36;;;;;;;0.65;0.65;;;9.00;73.60;;;;;;5119761;27;20016;-76
2023/11/04 00:42:02;;;;;;;2.95;0.80;;;9.00;55.40;;;;;;5107360;27;20019;-76
2023/11/04 00:44:29;;;;;;;1.20;0.50;;;9.00;56.20;;;;;;5122848;27;20428;-76
2023/11/04 00:46:54;;;;;;;0.55;0.55;;;9.10;55.60;;;;;;5123797;27;20028;-76
2023/11/04 00:49:20;;;;;;;1.05;0.80;;;9.10;51.30;;;;;;5126557;27;20024;-75
2023/11/04 00:51:47;;;;;;;0.60;0.60;;;9.20;57.10;;;;;;5123697;27;20043;-75
2023/11/04 00:54:12;;;;;;;1.17;0.73;;;9.20;59.90;;;;;;5108867;27;20393;-76
2023/11/04 00:56:39;;;;;;;1.55;0.50;;;9.20;51.60;;;;;;5105802;27;20057;-76
2023/11/04 00:59:05;;;;;;;0.88;0.80;;;9.10;49.00;;;;;;5126518;27;20450;-76
2023/11/04 01:01:31;;;;;;;0.95;0.77;;;9.10;46.40;;;;;;5126203;27;20110;-76
2023/11/04 01:03:57;;;;;;;0.80;0.80;;;9.10;42.20;;;;;;5123816;27;20028;-75
2023/11/04 01:06:22;;;;;;;1.13;0.80;;;9.10;35.50;;;;;;5106170;27;20072;-76
2023/11/04 01:08:48;;;;;;;1.00;0.63;;;9.00;37.30;;;;;;5107005;27;20023;-76
2023/11/04 01:11:14;;;;;;;0.70;0.70;;;9.10;45.60;;;;;;5122896;27;20063;-75
2023/11/04 01:13:39;;;;;;;1.23;0.90;;;9.00;45.20;;;;;;5126024;27;20075;-76
2023/11/04 01:16:06;;;;;;;1.80;0.80;;;9.00;45.70;;;;;;5105387;27;20028;-76
2023/11/04 01:18:31;;;;;;;1.48;0.93;;;9.00;40.10;;;;;;5123876;27;20131;-76
2023/11/04 01:20:57;;;;;;;1.75;0.80;;;9.00;43.60;;;;;;5125572;27;20434;-75
2023/11/04 01:23:23;;;;;;;1.30;0.90;;;9.00;40.80;;;;;;5104331;28;20394;-75
2023/11/04 01:25:49;;;;;;;1.13;1.02;;;9.00;29.30;;;;;;5125508;27;20027;-76
2023/11/04 01:28:14;;;;;;;0.90;0.90;;;9.00;23.20;;;;;;5123690;27;20535;-75
2023/11/04 01:30:40;;;;;;;0.80;0.80;;;9.00;30.40;;;;;;5102324;27;20043;-76
2023/11/04 01:33:06;;;;;;;1.45;1.10;;;9.00;31.50;;;;;;5104535;28;20032;-75
2023/11/04 01:35:32;;;;;;;2.15;1.00;;;9.00;30.10;;;;;;5122141;27;20030;-76
2023/11/04 01:37:58;;;;;;;1.05;1.05;;;8.90;32.20;;;;;;5124987;27;20386;-76
2023/11/04 01:40:23;;;;;;;1.45;1.35;;;8.90;42.90;;;;;;5123780;27;20037;-75
2023/11/04 01:42:49;;;;;;;2.40;1.08;;;8.90;44.70;;;;;;5126175;27;20367;-76
2023/11/04 01:45:15;;;;;;;1.23;1.00;;;8.90;35.40;;;;;;5104156;28;20028;-76
2023/11/04 01:47:41;;;;;;;1.52;1.42;;;8.90;43.50;;;;;;5107033;27;20031;-75
2023/11/04 01:50:08;;;;;;;0.90;0.90;;;8.80;36.50;;;;;;5122916;27;20406;-75
2023/11/04 01:52:38;;;;;;;1.00;1.00;;;8.80;36.40;;;;;;5105197;27;20051;-76
2023/11/04 01:55:06;;;;;;;1.40;1.30;;;8.80;32.60;;;;;;5121347;27;20034;-76
2023/11/04 01:57:32;;;;;;;0.90;0.90;;;8.90;29.20;;;;;;5117055;27;20023;-75
2023/11/04 01:59:59;;;;;;;1.95;1.10;;;8.90;40.60;;;;;;5119922;27;20055;-75
2023/11/04 02:02:27;;;;;;;1.42;1.02;;;8.90;24.10;;;;;;5105808;27;20639;-75
2023/11/04 02:04:53;;;;;;;2.17;0.80;;;8.90;26.50;;;;;;5121590;27;20028;-76
2023/11/04 02:07:19;;;;;;;1.42;1.30;;;8.80;25.00;;;;;;5118358;27;20027;-76
2023/11/04 02:09:45;;;;;;;0.85;0.85;;;8.90;29.00;;;;;;5123959;27;20382;-76
2023/11/04 02:12:12;;;;;;;0.70;0.70;;;8.90;31.60;;;;;;5105280;27;20019;-75
2023/11/04 02:14:48;;;;;;;0.88;0.88;;;8.80;36.50;;;;;;5122121;27;20547;-76
2023/11/04 02:17:14;;;;;;;1.58;1.20;;;8.80;36.00;;;;;;5120224;27;20057;-75
2023/11/04 02:19:40;;;;;;;4.13;1.08;;;8.90;39.70;;;;;;5104198;27;20371;-76
2023/11/04 02:22:05;;;;;;;2.88;1.23;;;8.90;37.50;;;;;;5124341;27;20130;-75
2023/11/04 02:24:31;;;;;;;1.00;1.00;;;8.80;32.00;;;;;;5121405;27;20027;-75
2023/11/04 02:26:57;;;;;;;1.25;1.15;;;8.80;31.00;;;;;;5105889;27;20480;-76
2023/11/04 02:29:23;;;;;;;1.27;1.20;;;8.80;34.30;;;;;;5121148;27;20020;-75
2023/11/04 02:31:48;;;;;;;1.90;1.10;;;8.80;38.10;;;;;;5116327;27;20040;-75
2023/11/04 02:34:14;;;;;;;1.05;1.00;;;8.80;33.70;;;;;;5119877;27;20066;-76
2023/11/04 02:36:40;;;;;;;1.77;1.25;;;8.80;38.70;;;;;;5124584;27;20084;-76
2023/11/04 02:39:06;;;;;;;0.85;0.85;;;8.80;40.50;;;;;;5122019;27;20031;-76
2023/11/04 02:41:32;;;;;;;1.15;1.10;;;8.80;29.80;;;;;;5104593;27;20106;-75
2023/11/04 02:43:58;;;;;;;1.00;1.00;;;8.80;41.40;;;;;;5123517;27;20446;-75
2023/11/04 02:46:24;;;;;;;0.93;0.93;;;8.70;37.80;;;;;;5102945;28;20024;-75
2023/11/04 02:48:50;;;;;;;2.17;0.90;;;8.70;37.10;;;;;;5117344;27;20110;-75
2023/11/04 02:51:16;;;;;;;1.45;1.13;;;8.70;38.40;;;;;;5124972;27;20506;-76
2023/11/04 02:53:41;;;;;;;0.82;0.82;;;8.70;34.80;;;;;;5104060;27;20036;-76
2023/11/04 02:56:08;;;;;;;2.10;1.10;;;8.60;50.90;;;;;;5107865;27;20115;-76
2023/11/04 02:58:33;;;;;;;2.25;1.00;;;8.60;39.30;;;;;;5121640;27;20028;-81
2023/11/04 03:00:59;;;;;;;1.95;0.90;;;8.60;42.90;;;;;;5122316;27;20036;-81
2023/11/04 03:03:25;;;;;;;0.85;0.82;;;8.60;53.10;;;;;;5121466;27;20027;-81
2023/11/04 03:05:51;;;;;;;1.10;1.10;;;8.50;39.60;;;;;;5122176;27;20387;-81
2023/11/04 03:08:16;;;;;;;1.25;0.90;;;8.50;39.90;;;;;;5120160;27;20027;-81
2023/11/04 03:10:42;;;;;;;0.90;0.90;;;8.50;41.40;;;;;;5120408;27;20038;-81
2023/11/04 03:13:08;;;;;;;1.02;1.02;;;8.50;43.30;;;;;;5118939;27;20024;-82
2023/11/04 03:15:33;;;;;;;0.77;0.77;;;8.60;33.00;;;;;;5119535;27;20023;-81
2023/11/04 03:17:59;;;;;;;1.35;1.10;;;8.60;28.00;;;;;;5122813;27;20114;-82
2023/11/04 03:20:25;;;;;;;1.10;0.90;;;8.70;30.50;;;;;;5102864;28;20495;-81
2023/11/04 03:22:50;;;;;;;1.15;1.15;;;8.70;23.00;;;;;;5105823;28;20474;-81
2023/11/04 03:25:18;;;;;;;0.80;0.80;;;8.70;20.50;;;;;;5121178;28;20030;-81
2023/11/04 03:27:44;;;;;;;1.17;0.90;;;8.60;29.40;;;;;;5122505;28;20095;-82
2023/11/04 03:30:10;;;;;;;1.08;0.95;;;8.60;20.40;;;;;;5123576;28;20031;-81
2023/11/04 03:32:36;;;;;;;1.20;1.20;;;8.60;24.10;;;;;;5106175;28;20039;-82
2023/11/04 03:35:01;;;;;;;1.10;1.00;;;8.60;25.80;;;;;;5123602;28;20023;-81
2023/11/04 03:37:27;;;;;;;1.85;0.82;;;8.60;28.00;;;;;;5121531;28;20035;-81
2023/11/04 03:39:53;;;;;;;0.60;0.60;;;8.60;26.90;;;;;;5124396;28;20054;-81
2023/11/04 03:42:19;;;;;;;0.98;0.80;;;8.60;18.30;;;;;;5120670;28;20076;-81
2023/11/04 03:44:44;;;;;;;1.15;1.05;;;8.60;27.60;;;;;;5120445;28;20065;-82
2023/11/04 03:47:10;;;;;;;0.68;0.68;;;8.60;23.20;;;;;;5124730;28;20383;-81
2023/11/04 03:49:36;;;;;;;1.23;1.13;;;8.60;23.50;;;;;;5123887;28;20554;-81
2023/11/04 03:52:02;;;;;;;1.00;0.90;;;8.60;18.90;;;;;;5123372;28;20054;-81
2023/11/04 03:54:29;;;;;;;1.25;0.80;;;8.60;17.70;;;;;;5126092;28;20027;-81
2023/11/04 03:56:55;;;;;;;1.05;1.05;;;8.60;16.50;;;;;;5103129;28;20028;-81
2023/11/04 03:59:20;;;;;;;1.10;0.85;;;8.60;10.30;;;;;;5125622;28;20027;-82
2023/11/04 04:01:46;;;;;;;0.70;0.70;;;8.70;15.60;;;;;;5125895;27;20035;-82
2023/11/04 04:04:12;;;;;;;0.70;0.70;;;8.70;9.90;;;;;;5127617;27;20028;-81
2023/11/04 04:06:38;;;;;;;1.33;0.80;;;8.70;1.00;;;;;;5129361;27;20478;-81
2023/11/04 04:09:03;;;;;;;0.85;0.85;;;8.70;6.70;;;;;;5128806;27;20030;-81
2023/11/04 04:11:29;;;;;;;0.82;0.80;;;8.70;4.60;;;;;;5107609;27;20027;-81
2023/11/04 04:13:55;;;;;;;0.60;0.60;;;8.70;1.00;;;;;;5127022;27;20439;-81
2023/11/04 04:16:23;;;;;;;0.70;0.70;;;8.70;1.00;;;;;;5127374;27;20028;-81
2023/11/04 04:18:49;;;;;;;1.33;1.02;;;8.70;1.00;;;;;;5128241;27;20030;-81
2023/11/04 04:21:16;;;;;;;1.88;0.70;;;8.70;1.00;;;;;;5128383;27;20030;-81
2023/11/04 04:23:42;;;;;;;1.55;0.70;;;8.70;1.00;;;;;;5127510;27;20028;-82
2023/11/04 04:26:07;;;;;;;0.60;0.60;;;8.80;1.00;;;;;;5125489;27;20106;-81
2023/11/04 04:28:35;;;;;;;0.80;0.80;;;8.80;1.00;;;;;;5127337;27;20054;-81
2023/11/04 04:31:01;;;;;;;0.60;0.60;;;8.80;1.00;;;;;;5084777;28;20028;-81
2023/11/04 04:33:27;;;;;;;0.80;0.80;;;8.70;1.00;;;;;;5124318;27;20027;-81
2023/11/04 04:35:52;;;;;;;0.70;0.70;;;8.80;1.00;;;;;;5103642;27;20034;-82
2023/11/04 04:38:18;;;;;;;1.30;0.95;;;8.80;1.00;;;;;;5128003;27;20034;-82
2023/11/04 04:40:44;;;;;;;0.88;0.88;;;8.70;1.00;;;;;;5123847;27;20483;-82
2023/11/04 04:43:09;;;;;;;0.77;0.77;;;8.80;1.00;;;;;;5126859;27;20058;-81
2023/11/04 04:45:35;;;;;;;1.25;0.90;;;8.80;1.00;;;;;;5124696;27;20019;-81
2023/11/04 04:48:01;;;;;;;0.60;0.60;;;8.80;1.00;;;;;;5106815;27;20061;-81
2023/11/04 04:50:27;;;;;;;0.90;0.85;;;8.70;1.00;;;;;;5122879;27;20112;-82
2023/11/04 04:52:52;;;;;;;0.90;0.90;;;8.70;1.00;;;;;;5126983;27;20031;-81
2023/11/04 04:55:20;;;;;;;0.77;0.77;;;8.70;1.00;;;;;;5123677;27;20032;-82
2023/11/04 04:57:46;;;;;;;1.48;0.80;;;8.70;1.00;;;;;;5125458;27;20212;-81
2023/11/04 05:00:12;;;;;;;1.02;0.88;;;8.60;1.00;;;;;;5102870;28;20058;-81
2023/11/04 05:02:37;;;;;;;0.90;0.90;;;8.60;1.00;;;;;;5104353;28;20038;-81
2023/11/04 05:05:03;;;;;;;0.70;0.70;;;8.60;1.00;;;;;;5126569;27;20479;-81
2023/11/04 05:07:29;;;;;;;0.70;0.70;;;8.60;1.00;;;;;;5124003;27;20383;-81
2023/11/04 05:09:55;;;;;;;0.80;0.80;;;8.60;1.00;;;;;;5106712;27;20023;-81
2023/11/04 05:12:21;;;;;;;0.68;0.68;;;8.50;1.00;;;;;;5106808;27;20073;-81
2023/11/04 05:14:47;;;;;;;1.85;0.70;;;8.60;1.00;;;;;;5123174;27;20417;-82
2023/11/04 05:17:13;;;;;;;1.05;1.05;;;8.60;1.00;;;;;;5114633;27;20416;-81
2023/11/04 05:19:38;;;;;;;1.75;0.80;;;8.60;1.00;;;;;;5123843;27;20065;-81
2023/11/04 05:22:04;;;;;;;0.90;0.90;;;8.70;1.00;;;;;;5124412;27;20363;-81
2023/11/04 05:24:29;;;;;;;0.80;0.80;;;8.70;1.00;;;;;;5107872;28;20028;-81
2023/11/04 05:26:55;;;;;;;1.10;1.00;;;8.70;1.00;;;;;;5126149;27;20106;-81
2023/11/04 05:29:21;;;;;;;0.75;0.75;;;8.60;1.00;;;;;;5123056;27;20023;-81
2023/11/04 05:31:46;;;;;;;2.22;1.20;;;8.60;1.00;;;;;;5126813;27;20023;-81
2023/11/04 05:34:12;;;;;;;1.08;0.88;;;8.60;1.00;;;;;;5124171;27;20023;-81
2023/11/04 05:36:38;;;;;;;0.90;0.82;;;8.60;1.00;;;;;;5125228;27;20486;-81
2023/11/04 05:39:05;;;;;;;1.85;0.75;;;8.50;1.00;;;;;;5122685;27;20034;-80
2023/11/04 05:41:31;;;;;;;0.77;0.77;;;8.50;1.00;;;;;;5107051;27;20023;-81
2023/11/04 05:43:56;;;;;;;2.72;0.90;;;8.50;1.00;;;;;;5123759;27;20020;-81
2023/11/04 05:46:22;;;;;;;0.95;0.85;;;8.50;1.00;;;;;;5123670;27;20504;-81
2023/11/04 05:48:48;;;;;;;1.00;1.00;;;8.40;1.00;;;;;;5125224;27;20497;-81
2023/11/04 05:51:25;;;;;;;1.98;0.73;;;8.40;1.00;;;;;;5103707;27;20046;-81
2023/11/04 05:53:51;;;;;;;0.60;0.60;;;8.40;1.00;;;;;;5105216;27;20055;-81
2023/11/04 05:56:17;;;;;;;2.42;0.80;;;8.40;1.00;;;;;;5121544;27;20107;-81
2023/11/04 05:58:43;;;;;;;0.80;0.80;;;8.40;1.00;;;;;;5125526;27;20023;-81
2023/11/04 06:01:09;;;;;;;0.88;0.88;;;8.40;2.40;;;;;;5119536;27;20410;-81
2023/11/04 06:03:34;;;;;;;1.77;0.70;;;8.40;1.00;;;;;;5126069;27;20080;-81
2023/11/04 06:06:01;;;;;;;0.57;0.57;;;8.30;7.20;;;;;;5122971;27;20024;-81
2023/11/04 06:08:27;;;;;;;1.15;0.88;;;8.30;1.00;;;;;;5125310;27;20023;-81
2023/11/04 06:10:52;;;;;;;1.08;0.70;;;8.40;3.20;;;;;;5122178;27;20038;-81
2023/11/04 06:13:18;;;;;;;0.80;0.80;;;8.40;1.00;;;;;;5125977;27;20387;-81
2023/11/04 06:15:44;;;;;;;1.50;0.93;;;8.40;1.00;;;;;;5121821;27;20031;-81
2023/11/04 06:18:09;;;;;;;1.40;0.80;;;8.40;1.00;;;;;;5100349;28;20024;-81
2023/11/04 06:20:35;;;;;;;0.90;0.70;;;8.30;1.00;;;;;;5106541;27;20119;-81
2023/11/04 06:23:01;;;;;;;0.75;0.68;;;8.40;1.00;;;;;;5106961;28;20028;-81
2023/11/04 06:25:27;;;;;;;1.42;1.33;;;8.40;1.00;;;;;;5123611;27;20019;-81
2023/11/04 06:27:52;;;;;;;2.17;1.02;;;8.50;1.00;;;;;;5123674;27;20116;-81
2023/11/04 06:30:18;;;;;;;0.98;0.98;;;8.40;1.00;;;;;;5118925;27;20397;-81
2023/11/04 06:32:43;;;;;;;1.63;1.05;;;8.40;1.00;;;;;;5124728;27;20023;-81
2023/11/04 06:35:09;;;;;;;1.00;0.90;;;8.40;1.00;;;;;;5121551;27;20051;-81
2023/11/04 06:37:38;;;;;;;0.70;0.70;;;8.40;1.00;;;;;;5103209;27;20055;-81
2023/11/04 06:40:09;;;;;;;4.88;0.90;;;8.40;1.00;;;;;;5104036;27;20020;-81
2023/11/04 06:42:35;;;;;;;0.82;0.82;;;8.40;1.00;;;;;;5124681;27;20068;-82
2023/11/04 06:45:02;;;;;;;0.90;0.90;;;8.40;1.00;;;;;;5120681;27;20117;-81
2023/11/04 06:47:28;;;;;;;0.70;0.70;;;8.50;1.00;;;;;;5104656;27;20031;-81
2023/11/04 06:49:53;;;;;;;0.70;0.70;;;8.50;1.00;;;;;;5121727;27;20024;-81
2023/11/04 06:52:19;;;;;;;0.98;0.77;;;8.50;1.00;;;;;;5105920;27;20131;-81
2023/11/04 06:54:45;;;;;;;0.77;0.75;;;8.50;1.00;;;;;;5121439;27;20041;-81
2023/11/04 06:57:10;;;;;;;0.70;0.70;;;8.50;1.00;;;;;;5106826;27;20046;-81
2023/11/04 06:59:40;;;;;;;0.85;0.85;;;8.50;1.00;;;;;;5105035;28;20382;-81
2023/11/04 07:02:07;;;;;;;1.55;0.90;;;8.60;1.00;;;;;;5124183;27;20114;-81
2023/11/04 07:04:33;;;;;;;1.02;0.98;;;8.70;1.00;;;;;;5111762;27;20016;-81
2023/11/04 07:06:59;;;;;;;0.98;0.98;;;8.70;1.00;;;;;;5100937;27;20110;-81
2023/11/04 07:09:24;;;;;;;1.10;0.77;;;8.70;1.00;;;;;;5103979;27;20019;-81
2023/11/04 07:11:50;;;;;;;0.80;0.80;;;8.70;1.00;;;;;;5123620;27;20019;-81
2023/11/04 07:14:16;;;;;;;1.85;0.93;;;8.80;1.00;;;;;;5120810;27;20032;-81
2023/11/04 07:16:44;;;;;;;0.80;0.80;;;8.80;1.00;;;;;;5105245;28;20092;-82
2023/11/04 07:19:11;;;;;;;0.90;0.90;;;8.80;1.00;;;;;;5118526;27;20051;-81
2023/11/04 07:21:37;;;;;;;2.35;1.30;;;8.90;1.00;;;;;;5121339;27;20445;-81
2023/11/04 07:24:04;;;;;;;0.95;0.95;;;8.90;1.00;;;;;;5124188;27;20087;-81
2023/11/04 07:26:30;;;;;;;1.20;1.05;;;9.00;1.00;;;;;;5102512;28;20016;-81
2023/11/04 07:28:56;;;;;;;2.85;1.15;;;9.10;1.00;;;;;;5104484;28;20042;-81
2023/11/04 07:31:22;;;;;;;0.88;0.88;;;9.10;1.00;;;;;;5118996;28;20038;-81
2023/11/04 07:33:48;;;;;;;0.80;0.80;;;9.20;1.00;;;;;;5120748;28;20024;-81
2023/11/04 07:36:25;;;;;;;1.10;0.98;;;9.30;1.00;;;;;;5131297;27;20105;-81
2023/11/04 07:38:52;;;;;;;1.02;0.85;;;9.30;1.00;;;;;;5109029;27;20498;-80
2023/11/04 07:41:18;;;;;;;0.90;0.90;;;9.30;1.00;;;;;;5124901;27;20031;-81
2023/11/04 07:43:44;;;;;;;2.55;0.80;;;9.30;1.00;;;;;;5105653;27;20428;-81
2023/11/04 07:46:10;;;;;;;3.05;1.60;;;9.40;1.00;;;;;;5124090;27;20028;-80
2023/11/04 07:48:35;;;;;;;0.90;0.90;;;9.40;1.00;;;;;;5126663;27;20043;-81
2023/11/04 07:51:01;;;;;;;1.38;1.17;;;9.50;1.00;;;;;;5106776;27;20042;-81
2023/11/04 07:53:27;;;;;;;2.40;0.80;;;9.50;1.00;;;;;;5127968;27;20031;-81
2023/11/04 07:55:55;;;;;;;1.05;1.02;;;9.60;1.00;;;;;;5125019;27;20089;-81
2023/11/04 07:58:21;;;;;;;0.70;0.70;;;9.60;1.00;;;;;;5126219;27;20450;-82
2023/11/04 08:00:47;;;;;;;4.95;1.00;;;9.70;1.00;;;;;;5107043;27;20027;-81
2023/11/04 08:03:13;;;;;;;2.65;1.20;;;9.70;1.00;;;;;;5109330;27;20020;-80
2023/11/04 08:05:40;;;;;;;2.38;1.20;;;9.80;1.00;;;;;;5123552;27;20023;-81
2023/11/04 08:08:07;;;;;;;1.10;1.00;;;9.80;1.00;;;;;;5125475;27;20539;-81
2023/11/04 08:10:33;;;;;;;1.00;1.00;;;9.90;1.00;;;;;;5125524;27;20027;-81
2023/11/04 08:12:59;;;;;;;1.05;0.95;;;10.00;1.00;;;;;;5127471;27;20019;-81
2023/11/04 08:15:25;;;;;;;1.17;1.02;;;10.00;1.00;;;;;;5105508;27;20027;-81
2023/11/04 08:17:50;;;;;;;2.95;1.08;;;10.10;1.00;;;;;;5128251;27;20167;-81
2023/11/04 08:20:17;;;;;;;1.02;0.80;;;10.10;1.00;;;;;;5109485;27;20490;-81
2023/11/04 08:22:45;;;;;;;0.80;0.80;;;10.10;1.00;;;;;;5124955;27;20106;-80
2023/11/04 08:25:12;;;;;;;0.75;0.73;;;10.10;1.00;;;;;;5123796;27;20023;-81
2023/11/04 08:27:38;;;;;;;1.20;1.10;;;10.20;1.00;;;;;;5126726;27;20489;-81
2023/11/04 08:30:07;;;;;;;2.38;1.00;;;10.20;1.00;;;;;;5120608;27;20028;-81
2023/11/04 08:32:33;;;;;;;0.95;0.95;;;10.30;1.00;;;;;;5122462;27;20057;-81
2023/11/04 08:34:59;;;;;;;2.35;0.90;;;10.30;1.00;;;;;;5123503;27;20058;-81
2023/11/04 08:37:26;;;;;;;1.38;0.80;;;10.40;1.50;;;;;;5123224;27;20027;-81
2023/11/04 08:39:52;;;;;;;0.85;0.85;;;10.50;1.00;;;;;;5104619;27;20023;-81
2023/11/04 08:42:18;;;;;;;0.98;0.77;;;10.50;1.00;;;;;;5126100;27;20100;-81
2023/11/04 08:44:44;;;;;;;1.30;0.70;;;10.60;1.00;;;;;;5105386;28;20035;-81
2023/11/04 08:47:10;;;;;;;0.60;0.60;;;10.60;1.00;;;;;;5122747;27;20035;-81
2023/11/04 08:49:36;;;;;;;1.95;0.90;;;10.70;1.00;;;;;;5125884;27;20390;-81
2023/11/04 08:52:02;;;;;;;0.50;0.50;;;10.70;1.00;;;;;;5125007;27;20039;-81
2023/11/04 08:54:28;;;;;;;2.05;0.43;;;10.80;1.00;;;;;;5108931;27;20094;-81
2023/11/04 08:56:53;;;;;;;2.72;0.50;;;10.90;1.00;;;;;;5123373;27;20023;-81
2023/11/04 08:59:19;;;;;;;0.82;0.60;;;11.00;1.00;;;;;;5105117;27;20027;-81
2023/11/04 09:01:45;;;;;;;0.70;0.70;;;11.00;1.00;;;;;;5124370;27;20028;-81
2023/11/04 09:04:11;;;;;;;0.82;0.60;;;11.10;1.00;;;;;;5125033;27;20037;-81
2023/11/04 09:06:37;;;;;;;0.75;0.75;;;11.10;1.00;;;;;;5127320;27;20019;-81
2023/11/04 09:09:06;;;;;;;0.63;0.60;;;11.20;1.00;;;;;;5127181;27;20020;-81
2023/11/04 09:11:32;;;;;;;0.82;0.82;;;11.20;1.00;;;;;;5107383;27;20023;-81
2023/11/04 09:13:57;;;;;;;1.90;0.77;;;11.30;1.00;;;;;;5120898;27;20034;-81
2023/11/04 09:16:23;;;;;;;0.85;0.70;;;11.30;1.00;;;;;;5105460;28;20028;-81
2023/11/04 09:18:49;;;;;;;0.75;0.75;;;11.30;1.00;;;;;;5126143;27;20025;-81
2023/11/04 09:21:14;;;;;;;2.25;0.80;;;11.40;1.00;;;;;;5123004;27;20062;-81
2023/11/04 09:23:40;;;;;;;2.60;0.70;;;11.40;1.00;;;;;;5104489;27;20076;-81
2023/11/04 09:26:06;;;;;;;2.28;0.73;;;11.40;99.90;;;;;;5106097;27;20524;-81
2023/11/04 09:28:32;;;;;;;0.75;0.75;;;11.50;1.00;;;;;;5125451;27;20485;-81
2023/11/04 09:30:58;;;;;;;0.60;0.60;;;11.50;1.00;;;;;;5119861;27;20054;-81
2023/11/04 09:33:23;;;;;;;0.70;0.70;;;11.40;1.00;;;;;;5125748;27;20058;-81
2023/11/04 09:35:49;;;;;;;0.57;0.57;;;11.40;1.00;;;;;;5123583;27;20039;-80
2023/11/04 09:38:15;;;;;;;0.52;0.52;;;11.40;1.00;;;;;;5105576;27;20023;-81
2023/11/04 09:40:41;;;;;;;1.02;0.52;;;11.50;1.00;;;;;;5125846;27;20059;-81
2023/11/04 09:43:07;;;;;;;0.63;0.63;;;11.50;1.00;;;;;;5103787;27;20027;-80
2023/11/04 09:45:33;;;;;;;0.40;0.40;;;11.50;1.00;;;;;;5126462;27;20024;-81
2023/11/04 09:47:59;;;;;;;4.18;0.73;;;11.70;1.00;;;;;;5105955;27;20027;-81
2023/11/04 09:50:26;;;;;;;1.10;0.80;;;11.70;99.90;;;;;;5106291;27;20035;-81
2023/11/04 09:53:00;;;;;;;0.57;0.57;;;11.80;99.90;;;;;;5122213;27;20186;-81
2023/11/04 09:55:26;;;;;;;2.20;0.60;;;11.80;1.00;;;;;;5086534;27;20436;-80
2023/11/04 09:57:54;;;;;;;0.60;0.60;;;11.70;1.00;;;;;;5123329;27;20027;-81
2023/11/04 10:00:21;;;;;;;2.95;0.75;;;11.70;1.00;;;;;;5126313;27;20591;-80
2023/11/04 10:02:47;;;;;;;2.65;1.40;;;11.90;1.00;;;;;;5118625;27;20024;-80
2023/11/04 10:05:13;;;;;;;2.90;1.10;;;12.00;1.00;;;;;;5124182;27;20385;-80
2023/11/04 10:07:39;;;;;;;2.88;1.20;;;12.00;1.00;;;;;;5125256;27;20027;-81
2023/11/04 10:10:07;;;;;;;0.60;0.60;;;12.00;1.00;;;;;;5124828;27;20045;-80
2023/11/04 10:12:33;;;;;;;0.90;0.70;;;12.00;99.90;;;;;;5121907;27;20024;-81
2023/11/04 10:14:59;;;;;;;3.75;0.90;;;12.00;1.00;;;;;;5105848;27;20026;-81
2023/11/04 10:17:25;;;;;;;1.08;0.70;;;12.10;1.00;;;;;;5102894;27;20068;-81
2023/11/04 10:19:50;;;;;;;2.95;0.80;;;12.10;1.00;;;;;;5105829;27;20079;-81
2023/11/04 10:22:16;;;;;;;0.88;0.80;;;12.20;1.00;;;;;;5121539;27;20031;-81
2023/11/04 10:24:42;;;;;;;2.67;1.10;;;12.10;1.00;;;;;;5103425;27;20090;-81
2023/11/04 10:27:08;;;;;;;1.13;0.70;;;12.20;1.00;;;;;;5123942;27;20106;-80
2023/11/04 10:29:33;;;;;;;2.13;1.52;;;12.20;1.00;;;;;;5123139;27;20023;-81
2023/11/04 10:32:03;;;;;;;1.48;1.17;;;12.20;1.00;;;;;;5124090;27;20449;-81
2023/11/04 10:34:32;;;;;;;4.05;1.10;;;12.20;1.00;;;;;;5103090;27;20527;-80
2023/11/04 10:37:01;;;;;;;2.97;1.30;;;12.30;1.00;;;;;;5123534;27;20027;-81
2023/11/04 10:39:30;;;;;;;2.10;1.70;;;12.40;1.00;;;;;;5128020;27;20035;-81
2023/11/04 10:42:13;;;;;;;1.55;1.45;;;12.40;1.00;;;;;;5125368;27;20027;-81
2023/11/04 10:44:46;;;;;;;1.80;1.70;;;12.40;1.00;;;;;;5103014;28;20066;-81
2023/11/04 10:47:44;;;;;;;2.78;1.48;;;12.40;1.00;;;;;;5103850;27;20073;-80
2023/11/04 10:50:15;;;;;;;1.33;1.33;;;12.40;1.00;;;;;;5114882;27;20019;-80
2023/11/04 10:52:51;;;;;;;2.10;1.77;;;12.40;1.00;;;;;;5102727;27;20406;-80
2023/11/04 10:55:21;;;;;;;1.27;1.17;;;12.50;1.00;;;;;;5125156;27;20513;-80
2023/11/04 10:57:54;;;;;;;2.08;1.65;;;12.50;1.00;;;;;;5102344;27;20024;-80
2023/11/04 11:00:25;;;;;;;1.30;1.30;;;12.50;1.00;;;;;;5100365;27;20031;-81
2023/11/04 11:02:52;;;;;;;2.42;1.55;;;12.60;1.00;;;;;;5121298;27;20137;-81
2023/11/04 11:05:23;;;;;;;1.30;1.20;;;12.60;1.00;;;;;;5120181;27;20030;-81
2023/11/04 11:07:49;;;;;;;2.03;1.63;;;12.60;1.00;;;;;;5124344;27;20015;-81
2023/11/04 11:10:19;;;;;;;2.10;1.50;;;12.60;1.00;;;;;;5104841;27;20091;-80
2023/11/04 11:12:51;;;;;;;1.40;1.20;;;12.60;1.00;;;;;;5117168;27;20360;-81
2023/11/04 11:15:17;;;;;;;1.90;1.80;;;12.60;1.00;;;;;;5122295;27;20045;-81
2023/11/04 11:17:43;;;;;;;2.30;1.52;;;12.60;1.00;;;;;;5120194;27;20016;-81
2023/11/04 11:20:35;;;;;;;2.35;1.58;;;12.60;1.00;;;;;;5123933;27;20398;-81
2023/11/04 11:23:08;;;;;;;1.00;1.00;;;12.60;1.00;;;;;;5116909;27;20030;-81
2023/11/04 11:25:37;;;;;;;1.67;1.33;;;12.60;1.00;;;;;;5122153;27;20008;-81
2023/11/04 11:28:19;;;;;;;1.58;1.48;;;12.60;1.00;;;;;;5120041;27;20020;-81
2023/11/04 11:30:46;;;;;;;4.65;1.77;;;12.70;1.00;;;;;;5117635;27;20031;-80
2023/11/04 11:33:14;;;;;;;4.05;1.30;;;12.70;1.00;;;;;;5119932;28;20023;-81
2023/11/04 11:35:53;;;;;;;6.55;1.60;;;12.80;1.00;;;;;;5124446;28;20027;-80
2023/11/04 11:38:19;;;;;;;2.78;1.52;;;12.80;1.00;;;;;;5120846;28;20028;-81
2023/11/04 11:40:45;;;;;;;1.60;1.30;;;12.80;1.00;;;;;;5116662;28;20482;-81
2023/11/04 11:43:11;;;;;;;1.95;1.50;;;12.80;1.00;;;;;;5124574;28;20085;-80
2023/11/04 11:45:37;;;;;;;1.55;1.45;;;12.90;1.00;;;;;;5120407;28;20023;-80
2023/11/04 11:48:02;;;;;;;2.85;1.30;;;12.90;1.00;;;;;;5124629;28;20030;-81
2023/11/04 11:50:28;;;;;;;1.00;1.00;;;12.90;1.00;;;;;;5120268;28;20099;-81
2023/11/04 11:52:54;;;;;;;1.60;1.50;;;12.90;1.00;;;;;;5124303;28;20055;-80
2023/11/04 11:55:20;;;;;;;4.50;1.40;;;12.90;1.00;;;;;;5124402;28;20019;-81
2023/11/04 11:57:45;;;;;;;1.75;1.63;;;13.00;1.00;;;;;;5121810;28;20451;-81
2023/11/04 12:00:12;;;;;;;1.38;1.27;;;13.00;1.00;;;;;;5105352;28;20521;-81
2023/11/04 12:02:38;;;;;;;1.70;1.60;;;13.00;1.00;;;;;;5120274;28;20016;-81
2023/11/04 12:05:04;;;;;;;1.83;1.70;;;13.00;1.00;;;;;;5123024;28;20110;-81
2023/11/04 12:07:31;;;;;;;2.28;1.92;;;13.00;1.00;;;;;;5121564;28;20378;-81
2023/11/04 12:09:57;;;;;;;1.80;1.70;;;13.00;1.00;;;;;;5100464;28;20019;-81
2023/11/04 12:12:23;;;;;;;3.92;2.10;;;12.90;1.00;;;;;;5120290;28;20049;-80
2023/11/04 12:14:59;;;;;;;3.13;1.75;;;13.00;1.00;;;;;;5116211;28;20035;-80
2023/11/04 12:17:25;;;;;;;1.95;1.85;;;13.00;1.00;;;;;;5121188;28;20039;-81
2023/11/04 12:19:51;;;;;;;2.42;1.80;;;13.00;1.00;;;;;;5123302;28;20028;-81
2023/11/04 12:22:17;;;;;;;2.03;1.80;;;13.00;1.00;;;;;;5117054;27;20498;-81
2023/11/04 12:24:43;;;;;;;1.98;1.77;;;13.00;1.00;;;;;;5126003;27;20050;-80
2023/11/04 12:27:09;;;;;;;1.73;1.63;;;13.00;1.00;;;;;;5122963;27;20027;-81
2023/11/04 12:29:38;;;;;;;7.88;7.13;;;13.00;1.00;;;;;;5121093;27;20523;-81
2023/11/04 12:32:04;;;;;;;12.20;10.88;;;13.00;1.00;;;;;;5122625;27;20487;-80
2023/11/04 12:34:30;;;;;;;8.82;6.57;;;13.10;1.00;;;;;;5123594;27;20501;-80
2023/11/04 12:36:55;;;;;;;2.25;2.15;;;13.10;1.00;;;;;;5124355;27;20066;-80
2023/11/04 12:39:22;;;;;;;4.43;2.65;;;13.20;1.00;;;;;;5106584;27;20390;-81
2023/11/04 12:41:47;;;;;;;2.55;2.20;;;13.20;1.00;;;;;;5126992;27;20027;-81
2023/11/04 12:44:15;;;;;;;3.05;2.38;;;13.20;1.00;;;;;;5121532;27;20023;-81
2023/11/04 12:46:41;;;;;;;2.13;2.03;;;13.20;1.00;;;;;;5105133;27;20401;-81
2023/11/04 12:49:08;;;;;;;4.18;2.10;;;13.10;1.00;;;;;;5124833;27;20628;-80
2023/11/04 12:51:34;;;;;;;3.28;2.00;;;13.20;1.00;;;;;;5124891;27;20040;-81
2023/11/04 12:54:00;;;;;;;2.20;2.00;;;13.30;1.00;;;;;;5126257;27;20031;-81
2023/11/04 12:56:25;;;;;;;3.03;2.28;;;13.30;1.00;;;;;;5124163;27;20024;-81